עמוד ראשי
METAR-TAF:

METAR-TAF

שדות תעופה :

Key Lake, ססקצ'ואן, קנדה

קו רוחב: 57-15N, קו אורך: 105-37W, גובה: 509מטר

תצפית מזג אוויר נוכחית

הדו"ח נערך לפני 24דקות, בשעה 19:12 UTC
רוח 10קשר מכיוון מערב עם משבים עד 20קשר
טמפרטורת 4 צלסיוס
לחות 93%
לחץ 999 hPa
ראות: 14.5קילומטר
עננים בינוניים בגובה 2800רגל
עננים בינוניים בגובה 3600רגל
עננים בינוניים בגובה 5500רגל
גשם קל

METAR: CYKJ 171912Z AUTO 27010G20KT 9SM -RA BKN028 BKN036 BKN055 04/03 A2951 RMK SLP017

זמן: 13:36 (19:36 UTC)

תחזית

הדו"ח נערך לפני 56דקות, בשעה 18:40 UTC
תחזית בתוקף מ 17 ב 19 UTC עד 17 ב 24 UTC
רוח 12קשר מכיוון מערב עם משבים עד 22קשר
ראות: 10קילומטר
עננים בינוניים בגובה 5000רגל
זמנית מ -
17 ב 19 UTC עד 17 ב 24 UTC
ראות: 10קילומטר
עננים בינוניים בגובה 3000רגל
ממטרי גשם קלים

TAF: CYKJ 171840Z 1719/1724 28012G22KT P6SM BKN050 TEMPO 1719/1724 P6SM -SHRA BKN030 RMK FCST BASED ON AUTO OBS. NXT FCST BY 181000Z

תצפיות ותחזיות מזג אוויר לגבי יותר מ- 4,000 שדות תעופה ברחבי העולם. דוחות METAR ו- TAF.

התחנות הזמינות מסומנות בנקודות צהובות ואדומות על גבי המפה.

העבר את העכבר לנקודה הצבעונית על מנת לראות את שם התחנה.

לאחר מכן, לחץ כדי לראות את תוכן ואת תחזיות מזג האוויר.

כדי לשנות את המפה: לחץ על הכפתורים הירוקים עם הפלוס השחור כדי להתקרב; על הכפתור הירוק עם המקף כדי להתרחק; או בחיצים הירוקים למפות סמוכות.


METAR-TAF: